Metar z połowy godziny Komunikat METAR ze strony awiacja.imgw.pl Metar G30 EPKT METAR EPKT 231230Z 23010KT 180V280 CAVOK 24/07 Q1012 =